Time;durP1;ratioP1;P1;durP2;ratioP2;P2;SDS_P1;SDS_P2;PMS_P1;PMS_P2;Temp;Humidity;BMP_temperature;BMP_pressure;BME280_temperature;BME280_humidity;BME280_pressure;Samples;Min_cycle;Max_cycle;Signal;HPM_P1;HPM_P2
2021/09/24 00:01:08;;;;;;;6.82;2.70;;;14.00;73.80;;;;;;5112743;28;20397;-81
2021/09/24 00:03:37;;;;;;;4.10;2.58;;;14.00;73.60;;;;;;5095386;28;20020;-81
2021/09/24 00:06:05;;;;;;;2.75;2.20;;;14.00;73.30;;;;;;5095636;28;20095;-80
2021/09/24 00:08:31;;;;;;;7.47;3.05;;;14.00;73.20;;;;;;5095480;28;20098;-80
2021/09/24 00:10:57;;;;;;;3.83;2.47;;;13.90;73.10;;;;;;5095405;28;20485;-80
2021/09/24 00:13:23;;;;;;;4.13;2.47;;;14.00;72.90;;;;;;5077246;28;20074;-80
2021/09/24 00:15:49;;;;;;;4.75;2.40;;;13.90;73.00;;;;;;5094079;28;20024;-80
2021/09/24 00:18:15;;;;;;;3.08;2.25;;;13.80;73.60;;;;;;5077140;28;20069;-81
2021/09/24 00:20:43;;;;;;;3.78;2.38;;;13.70;73.60;;;;;;5092786;28;20043;-80
2021/09/24 00:23:08;;;;;;;3.90;2.53;;;13.70;73.70;;;;;;5093663;28;20126;-80
2021/09/24 00:25:34;;;;;;;3.03;2.40;;;13.60;73.90;;;;;;5104149;28;20081;-80
2021/09/24 00:28:03;;;;;;;6.43;3.20;;;13.60;74.00;;;;;;5095377;28;20489;-80
2021/09/24 00:30:28;;;;;;;4.18;3.00;;;13.70;73.90;;;;;;5095351;28;20032;-81
2021/09/24 00:32:54;;;;;;;5.53;3.05;;;13.70;73.90;;;;;;5095012;28;20027;-80
2021/09/24 00:35:20;;;;;;;4.60;2.95;;;13.80;74.00;;;;;;5094989;28;20525;-80
2021/09/24 00:37:48;;;;;;;3.10;2.60;;;13.80;73.80;;;;;;5095148;28;20035;-80
2021/09/24 00:40:13;;;;;;;4.40;2.60;;;13.80;74.40;;;;;;5087172;28;20026;-80
2021/09/24 00:42:39;;;;;;;5.05;3.00;;;13.80;74.90;;;;;;5127136;27;20481;-80
2021/09/24 00:45:06;;;;;;;4.32;3.15;;;13.80;75.40;;;;;;5141174;27;20413;-80
2021/09/24 00:47:32;;;;;;;5.55;2.90;;;13.80;75.50;;;;;;5141745;27;20019;-80
2021/09/24 00:49:58;;;;;;;5.10;2.90;;;13.90;75.10;;;;;;5105317;27;20035;-80
2021/09/24 00:52:24;;;;;;;7.32;3.03;;;13.90;75.00;;;;;;5100804;28;20119;-80
2021/09/24 00:54:51;;;;;;;3.83;2.65;;;14.00;74.10;;;;;;5113905;28;20024;-80
2021/09/24 00:57:18;;;;;;;5.80;2.30;;;14.00;74.60;;;;;;5101328;28;20042;-80
2021/09/24 00:59:46;;;;;;;3.17;2.40;;;14.10;74.10;;;;;;5119308;28;20023;-80
2021/09/24 01:02:12;;;;;;;6.50;2.83;;;14.10;73.90;;;;;;5103993;28;20020;-80
2021/09/24 01:04:38;;;;;;;4.25;2.88;;;14.10;73.90;;;;;;5081663;28;20556;-80
2021/09/24 01:07:04;;;;;;;4.80;2.83;;;14.10;74.10;;;;;;5098667;28;20020;-80
2021/09/24 01:09:30;;;;;;;3.95;2.35;;;14.10;74.40;;;;;;5080253;28;20072;-80
2021/09/24 01:11:55;;;;;;;4.63;2.67;;;14.10;74.00;;;;;;5101534;28;20103;-80
2021/09/24 01:14:21;;;;;;;6.60;2.78;;;14.10;74.00;;;;;;5118979;28;20028;-80
2021/09/24 01:16:47;;;;;;;5.13;2.55;;;14.10;74.20;;;;;;5104470;28;20480;-80
2021/09/24 01:19:13;;;;;;;3.45;2.65;;;14.10;74.60;;;;;;5098412;28;20067;-80
2021/09/24 01:21:42;;;;;;;5.18;3.00;;;14.10;75.10;;;;;;5098494;28;20020;-80
2021/09/24 01:24:09;;;;;;;3.80;2.60;;;14.10;75.20;;;;;;5098991;28;20044;-80
2021/09/24 01:26:34;;;;;;;4.72;2.55;;;14.10;75.50;;;;;;5100361;28;20533;-80
2021/09/24 01:29:03;;;;;;;4.22;2.75;;;14.10;74.70;;;;;;5114087;28;20024;-80
2021/09/24 01:31:28;;;;;;;3.45;2.50;;;14.10;75.30;;;;;;5098280;28;20036;-80
2021/09/24 01:33:54;;;;;;;4.82;2.83;;;14.10;75.50;;;;;;5079751;28;20046;-80
2021/09/24 01:36:20;;;;;;;6.35;2.53;;;14.10;75.50;;;;;;5098160;28;20127;-80
2021/09/24 01:38:45;;;;;;;4.10;2.80;;;14.20;75.10;;;;;;5098105;28;20036;-80
2021/09/24 01:41:11;;;;;;;2.88;2.40;;;14.10;75.00;;;;;;5079922;28;20077;-80
2021/09/24 01:43:37;;;;;;;2.47;2.10;;;14.10;74.50;;;;;;5136353;27;20031;-80
2021/09/24 01:46:04;;;;;;;4.72;2.85;;;14.10;74.80;;;;;;5096500;28;20154;-80
2021/09/24 01:48:30;;;;;;;4.45;2.50;;;14.00;74.80;;;;;;5097776;28;20165;-80
2021/09/24 01:50:56;;;;;;;3.28;2.47;;;14.00;74.80;;;;;;5097924;28;20371;-80
2021/09/24 01:53:22;;;;;;;4.45;2.65;;;13.90;75.30;;;;;;5097509;28;20035;-80
2021/09/24 01:55:48;;;;;;;3.35;2.60;;;13.80;75.60;;;;;;5097804;28;20032;-80
2021/09/24 01:58:13;;;;;;;3.75;2.47;;;13.80;75.60;;;;;;5079529;28;20032;-80
2021/09/24 02:00:40;;;;;;;3.67;2.47;;;13.80;75.30;;;;;;5097525;28;20047;-80
2021/09/24 02:03:05;;;;;;;3.95;2.50;;;13.70;75.20;;;;;;5097816;28;20039;-80
2021/09/24 02:05:31;;;;;;;4.40;2.50;;;13.70;75.80;;;;;;5097408;28;20031;-80
2021/09/24 02:07:57;;;;;;;2.83;2.50;;;13.70;75.30;;;;;;5097425;28;20081;-80
2021/09/24 02:10:23;;;;;;;2.92;2.58;;;13.70;75.40;;;;;;5079301;28;20035;-80
2021/09/24 02:12:48;;;;;;;5.95;2.85;;;13.70;75.80;;;;;;5097836;28;20028;-80
2021/09/24 02:15:15;;;;;;;3.63;2.60;;;13.70;75.40;;;;;;5097428;28;20127;-80
2021/09/24 02:17:42;;;;;;;4.40;2.67;;;13.70;75.30;;;;;;5097421;28;20078;-80
2021/09/24 02:20:09;;;;;;;3.45;2.53;;;13.70;75.70;;;;;;5097339;28;20107;-80
2021/09/24 02:22:35;;;;;;;4.13;2.63;;;13.60;75.70;;;;;;5078865;28;20515;-80
2021/09/24 02:25:01;;;;;;;4.78;2.47;;;13.50;75.70;;;;;;5097280;28;20052;-80
2021/09/24 02:27:26;;;;;;;5.00;2.38;;;13.40;76.00;;;;;;5097280;28;20065;-80
2021/09/24 02:29:52;;;;;;;4.72;2.80;;;13.40;75.70;;;;;;5097349;28;20557;-79
2021/09/24 02:32:18;;;;;;;6.13;2.85;;;13.50;75.90;;;;;;5078771;28;20028;-80
2021/09/24 02:34:43;;;;;;;3.28;2.42;;;13.50;75.80;;;;;;5113893;28;20035;-80
2021/09/24 02:37:12;;;;;;;2.80;2.35;;;13.40;75.50;;;;;;5098972;28;20176;-80
2021/09/24 02:39:37;;;;;;;4.68;2.45;;;13.30;75.60;;;;;;5094563;28;20035;-80
2021/09/24 02:42:03;;;;;;;5.80;2.65;;;13.30;75.70;;;;;;5087845;27;20023;-80
2021/09/24 02:44:29;;;;;;;4.18;2.70;;;13.30;75.80;;;;;;5078714;28;20524;-80
2021/09/24 02:46:55;;;;;;;4.05;2.53;;;13.20;76.20;;;;;;5096966;28;20036;-80
2021/09/24 02:49:21;;;;;;;5.13;2.88;;;13.30;76.10;;;;;;5095450;28;20024;-80
2021/09/24 02:51:47;;;;;;;4.28;2.80;;;13.30;75.90;;;;;;5096554;28;20028;-79
2021/09/24 02:54:12;;;;;;;6.72;2.83;;;13.20;76.50;;;;;;5096627;28;20028;-79
2021/09/24 02:56:38;;;;;;;3.90;2.67;;;13.30;76.50;;;;;;5096647;28;20039;-80
2021/09/24 02:59:04;;;;;;;6.70;3.33;;;13.30;76.30;;;;;;5106288;28;20020;-80
2021/09/24 03:01:29;;;;;;;6.00;3.33;;;13.30;76.20;;;;;;5116922;28;20030;-80
2021/09/24 03:03:55;;;;;;;4.57;2.92;;;13.40;76.20;;;;;;5093822;28;20031;-80
2021/09/24 03:06:21;;;;;;;6.28;2.97;;;13.40;76.20;;;;;;5096105;28;20324;-80
2021/09/24 03:08:47;;;;;;;4.38;3.20;;;13.50;76.30;;;;;;5096153;28;20032;-80
2021/09/24 03:11:18;;;;;;;4.15;3.15;;;13.60;75.80;;;;;;5096406;28;20024;-80
2021/09/24 03:13:44;;;;;;;5.88;3.35;;;13.60;75.80;;;;;;5096254;28;20041;-80
2021/09/24 03:16:11;;;;;;;6.05;3.28;;;13.70;75.80;;;;;;5097679;28;20034;-80
2021/09/24 03:18:37;;;;;;;6.25;3.92;;;13.60;76.70;;;;;;5116349;28;20102;-80
2021/09/24 03:21:02;;;;;;;7.70;3.65;;;13.70;75.80;;;;;;5116534;28;20066;-80
2021/09/24 03:23:28;;;;;;;4.90;3.60;;;13.60;76.10;;;;;;5098059;28;20046;-80
2021/09/24 03:25:54;;;;;;;4.72;3.67;;;13.70;76.20;;;;;;5107327;28;20062;-80
2021/09/24 03:28:22;;;;;;;6.03;3.85;;;13.70;76.30;;;;;;5096199;28;20562;-80
2021/09/24 03:30:49;;;;;;;4.95;3.47;;;13.70;75.90;;;;;;5077574;28;20032;-80
2021/09/24 03:33:14;;;;;;;5.93;3.60;;;13.80;76.40;;;;;;5081694;28;20114;-80
2021/09/24 03:35:40;;;;;;;5.00;2.97;;;13.80;76.30;;;;;;5095885;28;20116;-80
2021/09/24 03:38:06;;;;;;;4.82;3.50;;;13.80;76.60;;;;;;5095547;28;20035;-80
2021/09/24 03:40:32;;;;;;;6.97;4.35;;;13.80;76.20;;;;;;5077561;28;20501;-80
2021/09/24 03:42:58;;;;;;;9.00;4.38;;;13.80;76.90;;;;;;5123408;27;20015;-80
2021/09/24 03:45:28;;;;;;;7.88;4.38;;;13.80;77.20;;;;;;5118193;27;20548;-79
2021/09/24 03:47:54;;;;;;;6.60;4.43;;;13.80;76.70;;;;;;5095050;28;20482;-80
2021/09/24 03:50:19;;;;;;;8.05;5.10;;;13.80;76.90;;;;;;5095688;28;20059;-80
2021/09/24 03:52:45;;;;;;;10.23;4.75;;;13.80;76.70;;;;;;5077308;28;20039;-80
2021/09/24 03:55:11;;;;;;;7.72;4.78;;;13.80;76.80;;;;;;5095588;28;20502;-80
2021/09/24 03:57:37;;;;;;;7.28;4.80;;;13.80;76.90;;;;;;5095656;28;20316;-80
2021/09/24 04:00:03;;;;;;;8.45;4.85;;;13.80;76.60;;;;;;5095613;28;20020;-80
2021/09/24 04:02:31;;;;;;;6.75;4.68;;;13.80;76.50;;;;;;5099646;28;20023;-80
2021/09/24 04:04:57;;;;;;;8.23;5.55;;;13.80;76.60;;;;;;5115705;28;20095;-80
2021/09/24 04:07:22;;;;;;;7.75;4.68;;;13.80;76.60;;;;;;5096546;28;20055;-80
2021/09/24 04:09:48;;;;;;;9.25;5.78;;;13.80;77.00;;;;;;5094094;28;20478;-78
2021/09/24 04:12:14;;;;;;;8.60;5.75;;;13.70;76.80;;;;;;5095629;28;20395;-86
2021/09/24 04:14:40;;;;;;;7.97;4.95;;;13.70;76.80;;;;;;5083942;28;20374;-85
2021/09/24 04:17:06;;;;;;;9.98;6.18;;;13.70;76.60;;;;;;5095397;28;20042;-86
2021/09/24 04:19:32;;;;;;;10.90;6.18;;;13.60;76.90;;;;;;5080149;28;20500;-86
2021/09/24 04:21:57;;;;;;;10.02;5.93;;;13.50;77.10;;;;;;5081312;28;20020;-83
2021/09/24 04:24:23;;;;;;;11.45;6.30;;;13.50;76.80;;;;;;5099439;28;20052;-82
2021/09/24 04:26:48;;;;;;;14.25;6.88;;;13.50;77.00;;;;;;5099566;28;20024;-82
2021/09/24 04:29:14;;;;;;;11.07;5.93;;;13.50;77.00;;;;;;5099701;28;20028;-82
2021/09/24 04:31:40;;;;;;;12.10;6.75;;;13.50;77.00;;;;;;5099302;28;20032;-81
2021/09/24 04:34:06;;;;;;;11.38;6.65;;;13.40;77.10;;;;;;5099276;28;20452;-81
2021/09/24 04:36:37;;;;;;;13.38;6.75;;;13.40;76.90;;;;;;5081300;28;20119;-80
2021/09/24 04:39:04;;;;;;;12.85;7.20;;;13.40;76.40;;;;;;5099220;28;20028;-80
2021/09/24 04:41:30;;;;;;;11.18;6.43;;;13.40;76.60;;;;;;5119532;27;20019;-80
2021/09/24 04:43:56;;;;;;;12.35;7.57;;;13.30;76.60;;;;;;5124299;27;20468;-80
2021/09/24 04:46:22;;;;;;;9.85;6.57;;;13.30;76.40;;;;;;5119671;28;20088;-80
2021/09/24 04:48:48;;;;;;;11.00;6.97;;;13.30;76.20;;;;;;5110054;28;20107;-81
2021/09/24 04:51:14;;;;;;;10.80;6.72;;;13.30;76.80;;;;;;5081094;28;20035;-87
2021/09/24 04:53:59;;;;;;;12.10;6.15;;;13.30;76.80;;;;;;5081714;28;20032;-85
2021/09/24 04:56:25;;;;;;;9.65;6.40;;;13.30;76.70;;;;;;5080888;28;20185;-89
2021/09/24 04:58:51;;;;;;;11.00;5.90;;;13.20;76.40;;;;;;5099072;28;20059;-88
2021/09/24 05:01:17;;;;;;;7.78;4.53;;;13.20;76.50;;;;;;5120181;28;20110;-89
2021/09/24 05:03:42;;;;;;;7.47;3.95;;;13.20;76.50;;;;;;5109797;28;20035;-83
2021/09/24 05:06:08;;;;;;;6.38;3.83;;;13.20;76.40;;;;;;5099106;28;20103;-87
2021/09/24 05:08:34;;;;;;;5.47;3.63;;;13.20;76.50;;;;;;5117055;28;20023;-82
2021/09/24 05:10:59;;;;;;;3.83;2.88;;;13.20;76.30;;;;;;5119283;28;20024;-79
2021/09/24 05:13:25;;;;;;;6.22;3.33;;;13.10;76.10;;;;;;5101403;28;20019;-78
2021/09/24 05:15:51;;;;;;;5.55;3.55;;;13.10;76.30;;;;;;5108152;28;20028;-78
2021/09/24 05:18:16;;;;;;;4.30;3.13;;;13.00;76.20;;;;;;5113275;28;20034;-77
2021/09/24 05:20:42;;;;;;;7.55;3.25;;;12.90;76.60;;;;;;5098494;28;20030;-78
2021/09/24 05:23:08;;;;;;;7.10;3.25;;;12.90;76.40;;;;;;5098071;28;20040;-80
2021/09/24 05:25:33;;;;;;;4.57;2.95;;;12.80;76.60;;;;;;5099989;28;20059;-82
2021/09/24 05:27:59;;;;;;;4.72;3.10;;;12.90;76.70;;;;;;5116654;28;20020;-82
2021/09/24 05:30:25;;;;;;;5.18;3.17;;;12.80;76.80;;;;;;5097915;28;20040;-84
2021/09/24 05:32:50;;;;;;;6.60;3.50;;;12.80;77.20;;;;;;5096033;28;20024;-83
2021/09/24 05:35:16;;;;;;;5.32;3.10;;;12.80;77.20;;;;;;5087362;28;20525;-83
2021/09/24 05:37:45;;;;;;;4.82;3.63;;;12.80;77.20;;;;;;5117166;28;20489;-83
2021/09/24 05:40:12;;;;;;;4.15;3.25;;;12.80;77.10;;;;;;5118205;28;20084;-82
2021/09/24 05:42:37;;;;;;;4.82;2.90;;;12.90;77.00;;;;;;5119164;27;20012;-83
2021/09/24 05:45:15;;;;;;;;;;;;;;;;;;;;;
2021/09/24 05:47:42;;;;;;;4.47;3.10;;;12.80;76.60;;;;;;5097507;28;20024;-83
2021/09/24 05:50:12;;;;;;;5.10;3.08;;;12.90;76.70;;;;;;5097161;28;20043;-84
2021/09/24 05:52:43;;;;;;;3.78;2.83;;;12.90;76.80;;;;;;5099940;28;20505;-85
2021/09/24 05:55:09;;;;;;;5.00;2.85;;;12.80;76.80;;;;;;5095796;28;20082;-84
2021/09/24 05:57:35;;;;;;;6.35;3.50;;;12.90;76.60;;;;;;5097399;28;20024;-85
2021/09/24 06:00:01;;;;;;;4.93;3.00;;;13.00;76.60;;;;;;5097381;28;20546;-84
2021/09/24 06:02:26;;;;;;;4.40;2.85;;;13.10;76.50;;;;;;5099424;28;20016;-85
2021/09/24 06:04:52;;;;;;;7.13;3.53;;;13.10;76.50;;;;;;5097442;28;20028;-86
2021/09/24 06:07:18;;;;;;;3.85;2.78;;;13.20;76.70;;;;;;5096123;28;20020;-85
2021/09/24 06:09:43;;;;;;;4.13;2.92;;;13.20;76.70;;;;;;5096580;28;20409;-85
2021/09/24 06:12:09;;;;;;;4.35;2.72;;;13.20;77.10;;;;;;5100430;28;20079;-85
2021/09/24 06:14:35;;;;;;;4.60;3.05;;;13.30;77.30;;;;;;5111248;28;20089;-85
2021/09/24 06:17:00;;;;;;;3.53;2.65;;;13.20;77.70;;;;;;5099336;28;20381;-85
2021/09/24 06:19:26;;;;;;;4.38;3.28;;;13.30;77.60;;;;;;5117343;28;20078;-85
2021/09/24 06:21:52;;;;;;;4.85;3.20;;;13.30;77.80;;;;;;5097274;28;20020;-85
2021/09/24 06:24:17;;;;;;;6.43;3.00;;;13.30;78.40;;;;;;5096864;28;20586;-84
2021/09/24 06:26:43;;;;;;;5.82;2.97;;;13.30;78.10;;;;;;5096963;28;20021;-85
2021/09/24 06:29:09;;;;;;;7.35;2.95;;;13.40;77.90;;;;;;5096729;28;20389;-84
2021/09/24 06:31:34;;;;;;;4.35;3.03;;;13.30;77.90;;;;;;5096605;28;20024;-84
2021/09/24 06:34:00;;;;;;;5.05;3.25;;;13.40;77.60;;;;;;5094999;28;20067;-84
2021/09/24 06:36:26;;;;;;;6.30;3.47;;;13.60;76.90;;;;;;5095751;28;20076;-84
2021/09/24 06:38:51;;;;;;;4.60;3.22;;;13.60;77.10;;;;;;5096425;28;20064;-84
2021/09/24 06:41:17;;;;;;;4.60;3.35;;;13.60;77.80;;;;;;5094393;28;20381;-84
2021/09/24 06:43:43;;;;;;;6.95;4.22;;;13.60;78.20;;;;;;5104081;28;20028;-84
2021/09/24 06:46:09;;;;;;;6.10;4.50;;;13.70;78.30;;;;;;5098500;28;20083;-85
2021/09/24 06:48:35;;;;;;;5.22;3.80;;;13.70;77.90;;;;;;5115591;28;20042;-84
2021/09/24 06:51:02;;;;;;;6.88;4.05;;;13.70;78.00;;;;;;5116998;28;20096;-84
2021/09/24 06:53:28;;;;;;;7.30;4.00;;;13.80;78.00;;;;;;5117408;28;20500;-84
2021/09/24 06:55:57;;;;;;;7.75;4.68;;;13.80;78.10;;;;;;5116840;28;20038;-84
2021/09/24 06:58:23;;;;;;;6.15;4.70;;;13.90;77.30;;;;;;5093887;28;20042;-85
2021/09/24 07:00:49;;;;;;;7.32;4.78;;;14.00;76.70;;;;;;5096669;28;20020;-84
2021/09/24 07:03:14;;;;;;;8.02;4.75;;;14.10;76.70;;;;;;5077740;28;20478;-84
2021/09/24 07:05:40;;;;;;;7.30;4.57;;;14.20;77.30;;;;;;5078034;28;20027;-84
2021/09/24 07:08:06;;;;;;;6.97;4.57;;;14.30;77.10;;;;;;5095848;28;20103;-84
2021/09/24 07:10:31;;;;;;;8.45;5.10;;;14.30;77.50;;;;;;5096492;28;20039;-84
2021/09/24 07:12:57;;;;;;;7.13;4.05;;;14.30;76.90;;;;;;5096347;28;20092;-84
2021/09/24 07:15:23;;;;;;;7.22;3.95;;;14.40;76.90;;;;;;5095940;28;20040;-84
2021/09/24 07:17:49;;;;;;;8.80;5.18;;;14.50;76.60;;;;;;5096014;28;20031;-84
2021/09/24 07:20:15;;;;;;;6.65;4.47;;;14.60;77.10;;;;;;5095731;28;20012;-84
2021/09/24 07:22:40;;;;;;;6.88;4.60;;;14.70;76.60;;;;;;5094639;28;20034;-84
2021/09/24 07:25:07;;;;;;;10.27;5.13;;;14.70;76.00;;;;;;5096166;28;20028;-85
2021/09/24 07:27:33;;;;;;;8.80;4.47;;;14.80;76.10;;;;;;5095988;28;20035;-84
2021/09/24 07:29:59;;;;;;;8.40;4.43;;;14.80;76.10;;;;;;5095739;28;20032;-85
2021/09/24 07:32:26;;;;;;;8.23;4.25;;;15.00;76.40;;;;;;5094886;28;20051;-84
2021/09/24 07:34:52;;;;;;;7.45;4.10;;;15.10;75.80;;;;;;5095617;28;20036;-84
2021/09/24 07:37:18;;;;;;;8.02;3.95;;;15.30;75.50;;;;;;5095512;28;20085;-83
2021/09/24 07:39:44;;;;;;;6.32;4.10;;;15.30;76.10;;;;;;5095595;28;20543;-84
2021/09/24 07:42:10;;;;;;;5.90;4.10;;;15.50;75.80;;;;;;5095931;28;20015;-84
2021/09/24 07:44:36;;;;;;;8.93;3.88;;;15.60;75.80;;;;;;5095176;28;20500;-85
2021/09/24 07:47:02;;;;;;;6.57;4.22;;;15.70;74.90;;;;;;5102045;28;20027;-85
2021/09/24 07:49:28;;;;;;;10.02;4.85;;;15.80;74.90;;;;;;5095333;28;20024;-85
2021/09/24 07:51:53;;;;;;;5.65;4.15;;;15.90;75.30;;;;;;5095424;28;20034;-84
2021/09/24 07:54:21;;;;;;;6.32;3.85;;;16.00;74.90;;;;;;5095703;28;20036;-84
2021/09/24 07:56:51;;;;;;;8.65;4.47;;;16.20;75.00;;;;;;5077042;28;20077;-85
2021/09/24 07:59:17;;;;;;;8.23;4.33;;;16.30;75.20;;;;;;5095744;28;20032;-84
2021/09/24 08:01:43;;;;;;;5.15;3.55;;;16.30;74.60;;;;;;5092600;28;20337;-85
2021/09/24 08:04:09;;;;;;;8.77;4.35;;;16.40;74.40;;;;;;5095293;28;20462;-85
2021/09/24 08:06:35;;;;;;;6.88;3.53;;;16.50;75.20;;;;;;5095446;28;20099;-84
2021/09/24 08:09:00;;;;;;;5.35;3.78;;;16.50;74.90;;;;;;5076741;28;20077;-85
2021/09/24 08:11:26;;;;;;;5.50;3.72;;;16.60;74.80;;;;;;5095571;28;20470;-85
2021/09/24 08:13:52;;;;;;;6.50;4.13;;;16.70;74.70;;;;;;5077067;28;20053;-85
2021/09/24 08:16:18;;;;;;;4.82;3.40;;;16.70;75.00;;;;;;5077305;28;20964;-86
2021/09/24 08:18:44;;;;;;;5.38;3.90;;;16.80;74.80;;;;;;5094812;28;20043;-84
2021/09/24 08:21:09;;;;;;;8.13;3.72;;;16.80;74.60;;;;;;5095205;28;20029;-84
2021/09/24 08:23:37;;;;;;;8.43;3.83;;;16.90;74.10;;;;;;5094741;28;20525;-85
2021/09/24 08:26:05;;;;;;;6.10;3.50;;;17.00;74.20;;;;;;5095259;28;20046;-85
2021/09/24 08:28:30;;;;;;;6.70;3.63;;;17.10;74.00;;;;;;5076811;28;20028;-84
2021/09/24 08:30:56;;;;;;;8.70;3.53;;;17.20;73.80;;;;;;5095292;28;20066;-85
2021/09/24 08:33:22;;;;;;;6.13;3.55;;;17.30;73.40;;;;;;5095120;28;20032;-85
2021/09/24 08:35:48;;;;;;;6.78;3.65;;;17.50;72.90;;;;;;5094830;28;20032;-84
2021/09/24 08:38:14;;;;;;;9.20;4.28;;;17.60;72.80;;;;;;5093452;28;20986;-84
2021/09/24 08:40:39;;;;;;;5.63;3.60;;;17.70;72.20;;;;;;5094002;28;20165;-84
2021/09/24 08:43:06;;;;;;;3.65;2.25;;;17.80;72.10;;;;;;5100203;28;20481;-84
2021/09/24 08:45:32;;;;;;;2.75;1.50;;;18.00;71.10;;;;;;5097007;28;20023;-84
2021/09/24 08:48:01;;;;;;;2.42;1.25;;;18.10;69.50;;;;;;5097089;28;20114;-85
2021/09/24 08:50:29;;;;;;;3.47;1.67;;;18.40;69.10;;;;;;5113757;28;20079;-84
2021/09/24 08:52:55;;;;;;;3.13;1.48;;;18.60;66.70;;;;;;5115564;28;20028;-85
2021/09/24 08:55:21;;;;;;;2.00;1.23;;;18.90;67.30;;;;;;5092160;28;20035;-85
2021/09/24 08:57:47;;;;;;;2.03;0.98;;;19.70;65.60;;;;;;5076701;28;20039;-85
2021/09/24 09:00:14;;;;;;;2.28;1.25;;;20.00;64.20;;;;;;5094992;28;20026;-84
2021/09/24 09:03:10;;;;;;;1.77;1.17;;;19.80;62.80;;;;;;5094693;28;20020;-84
2021/09/24 09:05:47;;;;;;;2.63;1.20;;;19.70;63.50;;;;;;5097273;28;20063;-84
2021/09/24 09:08:16;;;;;;;2.53;1.27;;;19.80;63.50;;;;;;5098281;28;20028;-85
2021/09/24 09:10:52;;;;;;;3.65;1.70;;;19.80;63.20;;;;;;5098676;28;20032;-84
2021/09/24 09:13:20;;;;;;;1.90;1.40;;;19.80;63.90;;;;;;5080238;28;20119;-84
2021/09/24 09:15:59;;;;;;;1.90;1.20;;;19.80;62.70;;;;;;5096983;28;20088;-84
2021/09/24 09:18:26;;;;;;;2.40;1.30;;;20.00;63.30;;;;;;5117036;28;20030;-84
2021/09/24 09:20:52;;;;;;;4.03;1.23;;;20.00;63.50;;;;;;5100488;28;20028;-85
2021/09/24 09:23:19;;;;;;;2.35;1.30;;;19.90;63.50;;;;;;5118283;28;20067;-84
2021/09/24 09:25:46;;;;;;;4.60;1.40;;;19.70;63.00;;;;;;5109239;28;20016;-84
2021/09/24 09:28:24;;;;;;;2.20;1.50;;;19.60;63.60;;;;;;5098439;28;20020;-85
2021/09/24 09:30:50;;;;;;;1.90;1.20;;;19.50;64.00;;;;;;5110221;28;20034;-85
2021/09/24 09:33:18;;;;;;;4.25;1.58;;;19.70;63.60;;;;;;5118574;28;20109;-84
2021/09/24 09:35:49;;;;;;;3.17;1.52;;;19.90;63.60;;;;;;5118622;28;20024;-84
2021/09/24 09:38:27;;;;;;;2.22;1.40;;;20.00;62.20;;;;;;5118308;28;20025;-82
2021/09/24 09:41:05;;;;;;;2.08;1.50;;;20.20;63.10;;;;;;5097913;28;20147;-82
2021/09/24 09:43:37;;;;;;;3.00;1.45;;;20.20;63.40;;;;;;5126226;27;20488;-83
2021/09/24 09:46:06;;;;;;;3.97;1.23;;;20.30;63.00;;;;;;5117205;28;20024;-82
2021/09/24 09:48:31;;;;;;;1.77;1.23;;;20.30;62.80;;;;;;5100272;28;20035;-83
2021/09/24 09:50:58;;;;;;;5.80;1.70;;;20.30;63.00;;;;;;5099607;28;20027;-83
2021/09/24 09:53:24;;;;;;;3.08;1.42;;;20.30;62.50;;;;;;5095467;28;20036;-83
2021/09/24 09:55:59;;;;;;;2.25;1.38;;;20.10;62.90;;;;;;5096278;28;20490;-83
2021/09/24 09:58:28;;;;;;;2.40;1.40;;;19.90;63.40;;;;;;5097716;28;20140;-83
2021/09/24 10:01:10;;;;;;;3.08;1.20;;;19.80;63.80;;;;;;5097857;28;20073;-83
2021/09/24 10:03:51;;;;;;;2.80;1.45;;;19.60;64.30;;;;;;5097248;28;20028;-83
2021/09/24 10:06:21;;;;;;;4.95;1.92;;;19.40;64.60;;;;;;5097287;28;20025;-83
2021/09/24 10:08:51;;;;;;;2.90;1.40;;;19.30;65.20;;;;;;5097280;28;20044;-83
2021/09/24 10:11:19;;;;;;;3.45;2.00;;;19.20;65.50;;;;;;5097534;28;20161;-83
2021/09/24 10:13:54;;;;;;;3.13;2.03;;;19.30;65.10;;;;;;5097348;28;20051;-83
2021/09/24 10:16:23;;;;;;;3.42;1.92;;;19.40;66.00;;;;;;5077851;28;20039;-83
2021/09/24 10:18:49;;;;;;;2.60;1.45;;;19.60;64.90;;;;;;5097642;28;20020;-84
2021/09/24 10:21:15;;;;;;;4.38;1.88;;;19.60;64.90;;;;;;5097128;28;20023;-83
2021/09/24 10:23:43;;;;;;;3.88;1.90;;;19.60;65.60;;;;;;5096937;28;20052;-83
2021/09/24 10:26:15;;;;;;;3.10;1.67;;;19.70;64.40;;;;;;5096649;28;20470;-83
2021/09/24 10:28:42;;;;;;;3.40;1.92;;;19.70;64.80;;;;;;5097157;28;20030;-83
2021/09/24 10:31:15;;;;;;;4.35;2.40;;;19.70;64.50;;;;;;5102581;28;20023;-83
2021/09/24 10:33:45;;;;;;;2.78;1.85;;;19.70;64.70;;;;;;5117188;28;20776;-83
2021/09/24 10:36:31;;;;;;;2.42;1.80;;;19.90;64.40;;;;;;5111358;28;20493;-83
2021/09/24 10:38:56;;;;;;;2.72;1.92;;;20.00;63.60;;;;;;5078543;28;20044;-83
2021/09/24 10:41:22;;;;;;;3.33;2.00;;;20.20;63.00;;;;;;5097433;27;20027;-83
2021/09/24 10:43:50;;;;;;;3.20;1.70;;;19.90;63.10;;;;;;5114036;27;20023;-83
2021/09/24 10:46:25;;;;;;;3.33;2.55;;;20.10;63.40;;;;;;5078482;28;20032;-83
2021/09/24 10:49:16;;;;;;;3.53;2.30;;;20.00;62.90;;;;;;5096737;28;20028;-87
2021/09/24 10:52:08;;;;;;;4.35;1.80;;;20.10;63.60;;;;;;5078668;28;20035;-83
2021/09/24 10:54:55;;;;;;;2.58;1.75;;;20.00;63.60;;;;;;5096595;28;20028;-84
2021/09/24 10:57:22;;;;;;;2.88;2.00;;;20.10;64.60;;;;;;5078462;28;20472;-84
2021/09/24 10:59:47;;;;;;;3.22;2.40;;;20.20;63.90;;;;;;5096882;28;20022;-83
2021/09/24 11:02:42;;;;;;;2.58;1.92;;;20.20;62.80;;;;;;5092599;28;20032;-84
2021/09/24 11:05:09;;;;;;;3.45;2.05;;;20.30;62.80;;;;;;5078630;28;20092;-84
2021/09/24 11:07:35;;;;;;;2.67;1.80;;;20.30;63.20;;;;;;5078096;28;20790;-83
2021/09/24 11:10:03;;;;;;;2.95;1.98;;;20.30;62.70;;;;;;5096616;28;20454;-84
2021/09/24 11:12:29;;;;;;;2.35;1.63;;;20.20;62.70;;;;;;5078420;28;20130;-84
2021/09/24 11:15:11;;;;;;;2.45;1.60;;;20.30;62.00;;;;;;5096372;28;20052;-84
2021/09/24 11:17:54;;;;;;;3.20;1.77;;;20.30;62.90;;;;;;5096294;28;20034;-84
2021/09/24 11:20:30;;;;;;;3.13;1.70;;;20.40;62.60;;;;;;5096217;28;20052;-84
2021/09/24 11:22:56;;;;;;;4.20;1.50;;;20.50;61.90;;;;;;5096170;28;20050;-84
2021/09/24 11:25:22;;;;;;;5.35;1.95;;;20.60;62.90;;;;;;5096032;28;20367;-84
2021/09/24 11:27:48;;;;;;;3.53;1.75;;;20.60;62.60;;;;;;5098575;28;20034;-84
2021/09/24 11:30:16;;;;;;;2.88;1.90;;;20.70;61.80;;;;;;5116549;28;20577;-84
2021/09/24 11:32:45;;;;;;;2.22;1.63;;;20.70;61.90;;;;;;5106913;28;20081;-84
2021/09/24 11:35:19;;;;;;;2.58;1.67;;;20.70;61.00;;;;;;5095915;28;20053;-89
2021/09/24 11:37:46;;;;;;;2.35;1.33;;;20.70;61.70;;;;;;5077368;28;20039;-78
2021/09/24 11:40:14;;;;;;;2.90;1.52;;;20.70;61.50;;;;;;5095779;28;20016;-80
2021/09/24 11:42:46;;;;;;;1.80;1.40;;;20.80;61.10;;;;;;5108929;27;20016;-79
2021/09/24 11:45:23;;;;;;;3.08;1.88;;;20.80;60.80;;;;;;5115824;28;20098;-80
2021/09/24 11:47:57;;;;;;;2.20;1.40;;;20.90;60.70;;;;;;5093603;28;20054;-80
2021/09/24 11:50:22;;;;;;;4.57;1.63;;;20.90;61.00;;;;;;5095532;28;20024;-80
2021/09/24 11:52:53;;;;;;;3.25;1.90;;;21.10;61.20;;;;;;5095511;28;20091;-80
2021/09/24 11:55:31;;;;;;;2.75;1.50;;;21.20;61.20;;;;;;5085174;28;20020;-80
2021/09/24 11:58:00;;;;;;;2.97;1.77;;;21.20;60.50;;;;;;5097134;28;20401;-87
2021/09/24 12:00:29;;;;;;;2.90;2.00;;;21.30;60.50;;;;;;5095736;28;20050;-83
2021/09/24 12:03:21;;;;;;;2.85;1.70;;;21.30;59.60;;;;;;5095808;28;20028;-83
2021/09/24 12:06:10;;;;;;;2.33;1.20;;;21.30;60.70;;;;;;5095140;28;20043;-83
2021/09/24 12:08:48;;;;;;;4.50;1.80;;;21.30;61.40;;;;;;5095384;28;20489;-82
2021/09/24 12:11:20;;;;;;;2.60;1.50;;;21.30;60.40;;;;;;5095570;28;20402;-82
2021/09/24 12:13:46;;;;;;;2.50;1.38;;;21.30;61.80;;;;;;5095237;28;20475;-82
2021/09/24 12:16:15;;;;;;;3.00;1.40;;;21.40;61.50;;;;;;5095170;28;20028;-82
2021/09/24 12:18:57;;;;;;;2.50;1.27;;;21.50;61.20;;;;;;5093753;28;20480;-82
2021/09/24 12:21:38;;;;;;;2.53;1.45;;;21.50;61.10;;;;;;5095213;28;20473;-82
2021/09/24 12:24:09;;;;;;;3.95;1.80;;;21.30;61.10;;;;;;5095048;28;20486;-82
2021/09/24 12:26:36;;;;;;;;;;;21.30;61.40;;;;;;5095845;28;20057;-82
2021/09/24 12:29:09;;;;;;;3.80;1.10;;;21.40;61.80;;;;;;5094949;28;19912;-82
2021/09/24 12:31:42;;;;;;;2.67;1.17;;;21.30;62.20;;;;;;5095536;28;20056;-82
2021/09/24 12:34:12;;;;;;;3.00;1.33;;;21.20;62.50;;;;;;5095128;28;20094;-82
2021/09/24 12:37:03;;;;;;;3.47;1.60;;;21.10;63.20;;;;;;5095013;28;20123;-82
2021/09/24 12:39:31;;;;;;;1.85;1.08;;;21.00;62.90;;;;;;5095854;28;20036;-82
2021/09/24 12:42:01;;;;;;;2.10;1.10;;;21.00;63.80;;;;;;5109945;27;20015;-81
2021/09/24 12:44:26;;;;;;;4.13;1.60;;;21.20;63.60;;;;;;5123514;27;20491;-82
2021/09/24 12:46:56;;;;;;;3.60;2.13;;;21.30;62.90;;;;;;5099797;28;20066;-82
2021/09/24 12:49:22;;;;;;;2.60;1.60;;;21.30;62.90;;;;;;5099180;28;20019;-82
2021/09/24 12:51:51;;;;;;;3.00;1.70;;;21.20;62.30;;;;;;5099038;28;20080;-81